Thomas, West Virginia
Current Conditions -  °F | °C
As of 4:51 AM on Tuesday 21 Oct 2014 (Local Time) from KEKN Reporting Station
Overcast Overcast  
Wind Chill: 52°   Ceiling: 6000
Heat Index: 52°   Visibility: 10mi
Dew Point: 46°   Wind: 5mph
Humidity: 80%   Direction: NA
Pressure: 29.89"   Gusts: NA
Location:  39.15°N, 79.5°W
Report Text: KEKN 210851Z AUTO VRB04KT 10SM FEW025 BKN060 OVC075 11/08 A2989 RMK AO2 SLP126 T01110078 58008 TSNO
Loading
Personal Weather Stations






























Interactive Weather Map
Tropical Storm Tracking
New forecast layout! Learn more

10-Day Weather Forecast

Advertisements
Track Severe Weather on mobile